sensor_id;sensor_type;location;lat;lon;timestamp;temperature;humidity
51867;DHT22;52862;52.504;13.480;2022-10-22T00:01:41;14.10;99.90
51867;DHT22;52862;52.504;13.480;2022-10-22T00:04:08;14.00;99.90
51867;DHT22;52862;52.504;13.480;2022-10-22T00:06:35;14.20;99.90
51867;DHT22;52862;52.504;13.480;2022-10-22T00:09:02;14.00;99.90
51867;DHT22;52862;52.504;13.480;2022-10-22T00:11:29;14.00;99.90
51867;DHT22;52862;52.504;13.480;2022-10-22T00:13:56;14.20;99.90
51867;DHT22;52862;52.504;13.480;2022-10-22T00:16:23;14.00;99.90
51867;DHT22;52862;52.504;13.480;2022-10-22T00:18:50;13.90;99.90
51867;DHT22;52862;52.504;13.480;2022-10-22T00:21:16;13.70;99.90
51867;DHT22;52862;52.504;13.480;2022-10-22T00:23:43;13.70;99.90
51867;DHT22;52862;52.504;13.480;2022-10-22T00:26:10;14.00;99.90
51867;DHT22;52862;52.504;13.480;2022-10-22T00:28:38;13.70;99.90
51867;DHT22;52862;52.504;13.480;2022-10-22T00:31:04;14.10;99.90
51867;DHT22;52862;52.504;13.480;2022-10-22T00:33:31;14.20;99.90
51867;DHT22;52862;52.504;13.480;2022-10-22T00:35:58;13.90;99.90
51867;DHT22;52862;52.504;13.480;2022-10-22T00:38:25;13.90;99.90
51867;DHT22;52862;52.504;13.480;2022-10-22T00:40:51;14.10;99.90
51867;DHT22;52862;52.504;13.480;2022-10-22T00:43:19;13.90;99.90
51867;DHT22;52862;52.504;13.480;2022-10-22T00:45:46;13.90;99.90
51867;DHT22;52862;52.504;13.480;2022-10-22T00:48:16;13.90;99.90
51867;DHT22;52862;52.504;13.480;2022-10-22T00:50:46;13.90;99.90
51867;DHT22;52862;52.504;13.480;2022-10-22T00:53:17;14.00;99.90
51867;DHT22;52862;52.504;13.480;2022-10-22T00:55:46;13.90;99.90
51867;DHT22;52862;52.504;13.480;2022-10-22T00:58:14;13.90;99.90
51867;DHT22;52862;52.504;13.480;2022-10-22T01:00:42;13.80;99.90
51867;DHT22;52862;52.504;13.480;2022-10-22T01:03:10;13.80;99.90
51867;DHT22;52862;52.504;13.480;2022-10-22T01:05:49;13.90;99.90
51867;DHT22;52862;52.504;13.480;2022-10-22T01:08:22;13.90;99.90
51867;DHT22;52862;52.504;13.480;2022-10-22T01:11:01;13.70;99.90
51867;DHT22;52862;52.504;13.480;2022-10-22T01:13:35;14.10;99.90
51867;DHT22;52862;52.504;13.480;2022-10-22T01:16:10;14.00;99.90
51867;DHT22;52862;52.504;13.480;2022-10-22T01:18:42;13.90;99.90
51867;DHT22;52862;52.504;13.480;2022-10-22T01:21:21;13.90;99.90
51867;DHT22;52862;52.504;13.480;2022-10-22T01:24:11;14.00;99.90
51867;DHT22;52862;52.504;13.480;2022-10-22T01:26:52;14.00;99.90
51867;DHT22;52862;52.504;13.480;2022-10-22T01:29:24;14.00;99.90
51867;DHT22;52862;52.504;13.480;2022-10-22T01:31:58;14.00;99.90
51867;DHT22;52862;52.504;13.480;2022-10-22T01:34:26;14.00;99.90
51867;DHT22;52862;52.504;13.480;2022-10-22T01:36:55;14.00;99.90
51867;DHT22;52862;52.504;13.480;2022-10-22T01:39:24;14.00;99.90
51867;DHT22;52862;52.504;13.480;2022-10-22T01:41:54;13.80;99.90
51867;DHT22;52862;52.504;13.480;2022-10-22T01:44:28;13.90;99.90
51867;DHT22;52862;52.504;13.480;2022-10-22T01:47:04;14.00;99.90
51867;DHT22;52862;52.504;13.480;2022-10-22T01:49:43;14.00;99.90
51867;DHT22;52862;52.504;13.480;2022-10-22T01:52:22;14.00;99.90
51867;DHT22;52862;52.504;13.480;2022-10-22T01:54:58;13.80;99.90
51867;DHT22;52862;52.504;13.480;2022-10-22T01:57:32;13.90;99.90
51867;DHT22;52862;52.504;13.480;2022-10-22T02:00:05;13.80;99.90
51867;DHT22;52862;52.504;13.480;2022-10-22T02:02:36;14.00;99.90
51867;DHT22;52862;52.504;13.480;2022-10-22T02:05:08;13.90;99.90
51867;DHT22;52862;52.504;13.480;2022-10-22T02:07:40;13.90;99.90
51867;DHT22;52862;52.504;13.480;2022-10-22T02:10:09;13.90;99.90
51867;DHT22;52862;52.504;13.480;2022-10-22T02:12:38;13.90;99.90
51867;DHT22;52862;52.504;13.480;2022-10-22T02:15:07;13.90;99.90
51867;DHT22;52862;52.504;13.480;2022-10-22T02:17:36;13.90;99.90
51867;DHT22;52862;52.504;13.480;2022-10-22T02:20:10;13.80;99.90
51867;DHT22;52862;52.504;13.480;2022-10-22T02:22:38;13.80;99.90
51867;DHT22;52862;52.504;13.480;2022-10-22T02:25:06;13.80;99.90
51867;DHT22;52862;52.504;13.480;2022-10-22T02:27:38;14.10;99.90
51867;DHT22;52862;52.504;13.480;2022-10-22T02:30:10;13.90;99.90
51867;DHT22;52862;52.504;13.480;2022-10-22T02:32:40;13.90;99.90
51867;DHT22;52862;52.504;13.480;2022-10-22T02:35:11;13.90;99.90
51867;DHT22;52862;52.504;13.480;2022-10-22T02:37:39;13.90;99.90
51867;DHT22;52862;52.504;13.480;2022-10-22T02:40:07;13.50;99.90
51867;DHT22;52862;52.504;13.480;2022-10-22T02:42:35;13.80;99.90
51867;DHT22;52862;52.504;13.480;2022-10-22T02:45:04;13.60;99.90
51867;DHT22;52862;52.504;13.480;2022-10-22T02:47:31;13.80;99.90
51867;DHT22;52862;52.504;13.480;2022-10-22T02:49:58;13.80;99.90
51867;DHT22;52862;52.504;13.480;2022-10-22T02:52:25;13.80;99.90
51867;DHT22;52862;52.504;13.480;2022-10-22T02:54:52;13.80;99.90
51867;DHT22;52862;52.504;13.480;2022-10-22T02:57:18;13.80;99.90
51867;DHT22;52862;52.504;13.480;2022-10-22T02:59:50;13.70;99.90
51867;DHT22;52862;52.504;13.480;2022-10-22T03:02:17;13.90;99.90
51867;DHT22;52862;52.504;13.480;2022-10-22T03:04:44;13.90;99.90
51867;DHT22;52862;52.504;13.480;2022-10-22T03:07:10;13.60;99.90
51867;DHT22;52862;52.504;13.480;2022-10-22T03:09:37;13.80;99.90
51867;DHT22;52862;52.504;13.480;2022-10-22T03:12:04;13.80;99.90
51867;DHT22;52862;52.504;13.480;2022-10-22T03:14:31;13.90;99.90
51867;DHT22;52862;52.504;13.480;2022-10-22T03:16:58;13.70;99.90
51867;DHT22;52862;52.504;13.480;2022-10-22T03:19:25;13.70;99.90
51867;DHT22;52862;52.504;13.480;2022-10-22T03:21:55;13.70;99.90
51867;DHT22;52862;52.504;13.480;2022-10-22T03:24:27;13.70;99.90
51867;DHT22;52862;52.504;13.480;2022-10-22T03:26:55;13.80;99.90
51867;DHT22;52862;52.504;13.480;2022-10-22T03:29:25;13.70;99.90
51867;DHT22;52862;52.504;13.480;2022-10-22T03:31:52;13.80;99.90
51867;DHT22;52862;52.504;13.480;2022-10-22T03:34:19;11.30;99.90
51867;DHT22;52862;52.504;13.480;2022-10-22T03:36:46;13.80;99.90
51867;DHT22;52862;52.504;13.480;2022-10-22T03:39:15;13.70;99.90
51867;DHT22;52862;52.504;13.480;2022-10-22T03:41:43;14.00;99.90
51867;DHT22;52862;52.504;13.480;2022-10-22T03:44:10;13.80;99.90
51867;DHT22;52862;52.504;13.480;2022-10-22T03:46:37;13.70;99.90
51867;DHT22;52862;52.504;13.480;2022-10-22T03:49:06;13.70;99.90
51867;DHT22;52862;52.504;13.480;2022-10-22T03:51:33;13.60;99.90
51867;DHT22;52862;52.504;13.480;2022-10-22T03:54:01;13.80;99.90
51867;DHT22;52862;52.504;13.480;2022-10-22T03:56:28;13.60;99.90
51867;DHT22;52862;52.504;13.480;2022-10-22T03:58:56;13.60;99.90
51867;DHT22;52862;52.504;13.480;2022-10-22T04:01:23;13.40;99.90
51867;DHT22;52862;52.504;13.480;2022-10-22T04:03:50;13.60;99.90
51867;DHT22;52862;52.504;13.480;2022-10-22T04:06:16;13.60;99.90
51867;DHT22;52862;52.504;13.480;2022-10-22T04:08:44;13.60;99.90
51867;DHT22;52862;52.504;13.480;2022-10-22T04:11:12;13.60;99.90
51867;DHT22;52862;52.504;13.480;2022-10-22T04:13:40;13.50;99.90
51867;DHT22;52862;52.504;13.480;2022-10-22T04:16:07;13.50;99.90
51867;DHT22;52862;52.504;13.480;2022-10-22T04:18:34;13.30;99.90
51867;DHT22;52862;52.504;13.480;2022-10-22T04:21:03;13.60;99.90
51867;DHT22;52862;52.504;13.480;2022-10-22T04:23:29;13.50;99.90
51867;DHT22;52862;52.504;13.480;2022-10-22T04:25:57;13.60;99.90
51867;DHT22;52862;52.504;13.480;2022-10-22T04:28:24;13.50;99.90
51867;DHT22;52862;52.504;13.480;2022-10-22T04:30:52;13.70;99.90
51867;DHT22;52862;52.504;13.480;2022-10-22T04:33:18;13.50;99.90
51867;DHT22;52862;52.504;13.480;2022-10-22T04:35:45;13.50;99.90
51867;DHT22;52862;52.504;13.480;2022-10-22T04:38:12;13.60;99.90
51867;DHT22;52862;52.504;13.480;2022-10-22T04:40:39;13.60;99.90
51867;DHT22;52862;52.504;13.480;2022-10-22T04:43:05;13.60;99.90
51867;DHT22;52862;52.504;13.480;2022-10-22T04:45:32;13.60;99.90
51867;DHT22;52862;52.504;13.480;2022-10-22T04:48:00;13.40;99.90
51867;DHT22;52862;52.504;13.480;2022-10-22T04:50:27;13.60;99.90
51867;DHT22;52862;52.504;13.480;2022-10-22T04:52:53;13.50;99.90
51867;DHT22;52862;52.504;13.480;2022-10-22T04:55:20;13.60;99.90
51867;DHT22;52862;52.504;13.480;2022-10-22T04:57:47;13.60;99.90
51867;DHT22;52862;52.504;13.480;2022-10-22T05:00:14;13.60;99.90
51867;DHT22;52862;52.504;13.480;2022-10-22T05:02:41;13.50;99.90
51867;DHT22;52862;52.504;13.480;2022-10-22T05:05:10;13.60;99.90
51867;DHT22;52862;52.504;13.480;2022-10-22T05:07:37;13.60;99.90
51867;DHT22;52862;52.504;13.480;2022-10-22T05:10:04;13.40;99.90
51867;DHT22;52862;52.504;13.480;2022-10-22T05:12:31;13.50;99.90
51867;DHT22;52862;52.504;13.480;2022-10-22T05:14:58;13.50;99.90
51867;DHT22;52862;52.504;13.480;2022-10-22T05:17:24;13.50;99.90
51867;DHT22;52862;52.504;13.480;2022-10-22T05:19:51;13.50;99.90
51867;DHT22;52862;52.504;13.480;2022-10-22T05:22:18;13.40;99.90
51867;DHT22;52862;52.504;13.480;2022-10-22T05:24:45;13.50;99.90
51867;DHT22;52862;52.504;13.480;2022-10-22T05:27:14;13.40;99.90
51867;DHT22;52862;52.504;13.480;2022-10-22T05:29:40;13.40;99.90
51867;DHT22;52862;52.504;13.480;2022-10-22T05:32:07;13.40;99.90
51867;DHT22;52862;52.504;13.480;2022-10-22T05:34:34;13.30;99.90
51867;DHT22;52862;52.504;13.480;2022-10-22T05:37:01;13.40;99.90
51867;DHT22;52862;52.504;13.480;2022-10-22T05:39:28;13.40;99.90
51867;DHT22;52862;52.504;13.480;2022-10-22T05:41:55;13.30;99.90
51867;DHT22;52862;52.504;13.480;2022-10-22T05:44:21;13.20;99.90
51867;DHT22;52862;52.504;13.480;2022-10-22T05:46:48;13.20;99.90
51867;DHT22;52862;52.504;13.480;2022-10-22T05:49:15;13.50;99.90
51867;DHT22;52862;52.504;13.480;2022-10-22T05:51:41;13.20;99.90
51867;DHT22;52862;52.504;13.480;2022-10-22T05:54:15;13.20;99.90
51867;DHT22;52862;52.504;13.480;2022-10-22T05:56:43;13.20;99.90
51867;DHT22;52862;52.504;13.480;2022-10-22T05:59:10;13.20;99.90
51867;DHT22;52862;52.504;13.480;2022-10-22T06:01:38;13.40;99.90
51867;DHT22;52862;52.504;13.480;2022-10-22T06:04:07;13.20;99.90
51867;DHT22;52862;52.504;13.480;2022-10-22T06:06:37;13.20;99.90
51867;DHT22;52862;52.504;13.480;2022-10-22T06:09:09;13.20;99.90
51867;DHT22;52862;52.504;13.480;2022-10-22T06:11:36;13.30;99.90
51867;DHT22;52862;52.504;13.480;2022-10-22T06:14:03;13.40;99.90
51867;DHT22;52862;52.504;13.480;2022-10-22T06:16:31;14.60;99.90
51867;DHT22;52862;52.504;13.480;2022-10-22T06:18:58;13.20;99.90
51867;DHT22;52862;52.504;13.480;2022-10-22T06:21:25;13.20;99.90
51867;DHT22;52862;52.504;13.480;2022-10-22T06:23:54;13.20;99.90
51867;DHT22;52862;52.504;13.480;2022-10-22T06:26:21;13.20;99.90
51867;DHT22;52862;52.504;13.480;2022-10-22T06:28:48;13.20;99.90
51867;DHT22;52862;52.504;13.480;2022-10-22T06:31:15;13.30;99.90
51867;DHT22;52862;52.504;13.480;2022-10-22T06:33:42;13.60;99.90
51867;DHT22;52862;52.504;13.480;2022-10-22T06:36:10;13.30;99.90
51867;DHT22;52862;52.504;13.480;2022-10-22T06:38:38;13.30;99.90
51867;DHT22;52862;52.504;13.480;2022-10-22T06:41:06;13.50;99.90
51867;DHT22;52862;52.504;13.480;2022-10-22T06:43:33;13.40;99.90
51867;DHT22;52862;52.504;13.480;2022-10-22T06:46:00;13.50;99.90
51867;DHT22;52862;52.504;13.480;2022-10-22T06:48:28;13.60;99.90
51867;DHT22;52862;52.504;13.480;2022-10-22T06:50:54;13.60;99.90
51867;DHT22;52862;52.504;13.480;2022-10-22T06:53:21;13.70;99.90
51867;DHT22;52862;52.504;13.480;2022-10-22T06:55:48;13.90;99.90
51867;DHT22;52862;52.504;13.480;2022-10-22T06:58:14;13.70;99.90
51867;DHT22;52862;52.504;13.480;2022-10-22T07:00:41;13.70;99.90
51867;DHT22;52862;52.504;13.480;2022-10-22T07:03:10;13.80;99.90
51867;DHT22;52862;52.504;13.480;2022-10-22T07:05:38;13.80;99.90
51867;DHT22;52862;52.504;13.480;2022-10-22T07:08:05;13.80;99.90
51867;DHT22;52862;52.504;13.480;2022-10-22T07:10:31;13.90;99.90
51867;DHT22;52862;52.504;13.480;2022-10-22T07:12:58;14.00;99.90
51867;DHT22;52862;52.504;13.480;2022-10-22T07:15:25;14.10;99.90
51867;DHT22;52862;52.504;13.480;2022-10-22T07:17:51;14.10;99.90
51867;DHT22;52862;52.504;13.480;2022-10-22T07:20:18;14.20;99.90
51867;DHT22;52862;52.504;13.480;2022-10-22T07:22:47;14.10;99.90
51867;DHT22;52862;52.504;13.480;2022-10-22T07:25:14;14.30;99.90
51867;DHT22;52862;52.504;13.480;2022-10-22T07:27:44;14.30;99.90
51867;DHT22;52862;52.504;13.480;2022-10-22T07:30:12;14.50;99.90
51867;DHT22;52862;52.504;13.480;2022-10-22T07:32:39;14.50;99.90
51867;DHT22;52862;52.504;13.480;2022-10-22T07:35:06;14.50;99.90
51867;DHT22;52862;52.504;13.480;2022-10-22T07:37:33;14.70;99.90
51867;DHT22;52862;52.504;13.480;2022-10-22T07:40:00;14.80;99.90
51867;DHT22;52862;52.504;13.480;2022-10-22T07:42:30;15.10;99.90
51867;DHT22;52862;52.504;13.480;2022-10-22T07:44:57;15.30;99.90
51867;DHT22;52862;52.504;13.480;2022-10-22T07:47:24;15.50;99.90
51867;DHT22;52862;52.504;13.480;2022-10-22T07:49:51;15.60;99.90
51867;DHT22;52862;52.504;13.480;2022-10-22T07:52:18;15.40;99.90
51867;DHT22;52862;52.504;13.480;2022-10-22T07:54:44;15.70;99.90
51867;DHT22;52862;52.504;13.480;2022-10-22T07:57:12;15.90;99.90
51867;DHT22;52862;52.504;13.480;2022-10-22T07:59:38;15.80;99.90
51867;DHT22;52862;52.504;13.480;2022-10-22T08:02:05;15.50;99.90
51867;DHT22;52862;52.504;13.480;2022-10-22T08:04:32;15.40;99.90
51867;DHT22;52862;52.504;13.480;2022-10-22T08:06:59;15.10;99.90
51867;DHT22;52862;52.504;13.480;2022-10-22T08:09:26;15.30;99.90
51867;DHT22;52862;52.504;13.480;2022-10-22T08:11:53;15.10;99.90
51867;DHT22;52862;52.504;13.480;2022-10-22T08:14:20;15.30;99.90
51867;DHT22;52862;52.504;13.480;2022-10-22T08:16:47;15.00;99.90
51867;DHT22;52862;52.504;13.480;2022-10-22T08:19:15;15.00;99.90
51867;DHT22;52862;52.504;13.480;2022-10-22T08:21:44;15.20;99.90
51867;DHT22;52862;52.504;13.480;2022-10-22T08:24:11;15.30;99.90
51867;DHT22;52862;52.504;13.480;2022-10-22T08:26:40;15.30;99.90
51867;DHT22;52862;52.504;13.480;2022-10-22T08:29:07;15.10;99.90
51867;DHT22;52862;52.504;13.480;2022-10-22T08:31:35;15.70;99.90
51867;DHT22;52862;52.504;13.480;2022-10-22T08:34:02;15.10;99.90
51867;DHT22;52862;52.504;13.480;2022-10-22T08:36:30;15.10;99.90
51867;DHT22;52862;52.504;13.480;2022-10-22T08:38:57;14.90;99.90
51867;DHT22;52862;52.504;13.480;2022-10-22T08:41:24;14.80;99.90
51867;DHT22;52862;52.504;13.480;2022-10-22T08:44:06;14.90;99.90
51867;DHT22;52862;52.504;13.480;2022-10-22T08:46:46;15.00;99.90
51867;DHT22;52862;52.504;13.480;2022-10-22T08:49:20;15.20;99.90
51867;DHT22;52862;52.504;13.480;2022-10-22T08:51:48;15.40;99.90
51867;DHT22;52862;52.504;13.480;2022-10-22T08:54:21;16.60;99.90
51867;DHT22;52862;52.504;13.480;2022-10-22T08:57:02;15.90;99.90
51867;DHT22;52862;52.504;13.480;2022-10-22T08:59:35;15.90;99.90
51867;DHT22;52862;52.504;13.480;2022-10-22T09:02:17;15.70;99.90
51867;DHT22;52862;52.504;13.480;2022-10-22T09:04:51;15.80;99.90
51867;DHT22;52862;52.504;13.480;2022-10-22T09:07:23;15.90;99.90
51867;DHT22;52862;52.504;13.480;2022-10-22T09:09:51;16.00;99.90
51867;DHT22;52862;52.504;13.480;2022-10-22T09:12:21;16.00;99.90
51867;DHT22;52862;52.504;13.480;2022-10-22T09:14:50;15.90;99.90
51867;DHT22;52862;52.504;13.480;2022-10-22T09:17:23;15.90;99.90
51867;DHT22;52862;52.504;13.480;2022-10-22T09:19:58;16.00;99.90
51867;DHT22;52862;52.504;13.480;2022-10-22T09:22:33;16.10;99.90
51867;DHT22;52862;52.504;13.480;2022-10-22T09:25:16;15.80;99.90
51867;DHT22;52862;52.504;13.480;2022-10-22T09:27:44;15.90;99.90
51867;DHT22;52862;52.504;13.480;2022-10-22T09:30:15;16.00;99.90
51867;DHT22;52862;52.504;13.480;2022-10-22T09:32:43;16.30;99.90
51867;DHT22;52862;52.504;13.480;2022-10-22T09:35:11;16.20;99.90
51867;DHT22;52862;52.504;13.480;2022-10-22T09:37:46;16.30;99.90
51867;DHT22;52862;52.504;13.480;2022-10-22T09:40:14;16.40;99.90
51867;DHT22;52862;52.504;13.480;2022-10-22T09:42:43;16.60;99.90
51867;DHT22;52862;52.504;13.480;2022-10-22T09:45:22;16.70;99.90
51867;DHT22;52862;52.504;13.480;2022-10-22T09:48:03;16.70;99.90
51867;DHT22;52862;52.504;13.480;2022-10-22T09:50:40;16.50;99.90
51867;DHT22;52862;52.504;13.480;2022-10-22T09:53:12;16.50;99.90
51867;DHT22;52862;52.504;13.480;2022-10-22T09:55:41;16.50;99.90
51867;DHT22;52862;52.504;13.480;2022-10-22T09:58:11;16.60;99.90
51867;DHT22;52862;52.504;13.480;2022-10-22T10:00:39;16.60;99.90
51867;DHT22;52862;52.504;13.480;2022-10-22T10:03:16;16.50;99.90
51867;DHT22;52862;52.504;13.480;2022-10-22T10:05:46;16.40;99.90
51867;DHT22;52862;52.504;13.480;2022-10-22T10:08:14;16.60;99.90
51867;DHT22;52862;52.504;13.480;2022-10-22T10:10:45;16.60;99.90
51867;DHT22;52862;52.504;13.480;2022-10-22T10:13:29;16.70;99.90
51867;DHT22;52862;52.504;13.480;2022-10-22T10:16:05;16.70;99.90
51867;DHT22;52862;52.504;13.480;2022-10-22T10:18:47;16.80;99.90
51867;DHT22;52862;52.504;13.480;2022-10-22T10:21:24;16.30;99.90
51867;DHT22;52862;52.504;13.480;2022-10-22T10:23:57;15.90;99.90
51867;DHT22;52862;52.504;13.480;2022-10-22T10:26:32;16.20;99.90
51867;DHT22;52862;52.504;13.480;2022-10-22T10:29:12;16.00;99.90
51867;DHT22;52862;52.504;13.480;2022-10-22T10:31:47;16.20;99.90
51867;DHT22;52862;52.504;13.480;2022-10-22T10:34:25;16.00;99.90
51867;DHT22;52862;52.504;13.480;2022-10-22T10:37:00;16.00;99.90
51867;DHT22;52862;52.504;13.480;2022-10-22T10:39:36;15.90;99.90
51867;DHT22;52862;52.504;13.480;2022-10-22T10:42:14;16.10;99.90
51867;DHT22;52862;52.504;13.480;2022-10-22T10:44:58;16.10;99.90
51867;DHT22;52862;52.504;13.480;2022-10-22T10:47:46;16.00;99.90
51867;DHT22;52862;52.504;13.480;2022-10-22T10:50:23;16.00;99.90
51867;DHT22;52862;52.504;13.480;2022-10-22T10:53:00;16.10;99.90
51867;DHT22;52862;52.504;13.480;2022-10-22T10:55:31;16.20;99.90
51867;DHT22;52862;52.504;13.480;2022-10-22T10:58:09;16.30;99.90
51867;DHT22;52862;52.504;13.480;2022-10-22T11:00:45;16.20;99.90
51867;DHT22;52862;52.504;13.480;2022-10-22T11:06:32;16.30;99.90
51867;DHT22;52862;52.504;13.480;2022-10-22T11:09:04;16.80;99.90
51867;DHT22;52862;52.504;13.480;2022-10-22T11:11:37;17.20;99.90
51867;DHT22;52862;52.504;13.480;2022-10-22T11:14:12;17.50;99.90
51867;DHT22;52862;52.504;13.480;2022-10-22T11:16:42;17.60;99.90
51867;DHT22;52862;52.504;13.480;2022-10-22T11:19:14;17.20;99.90
51867;DHT22;52862;52.504;13.480;2022-10-22T11:22:02;17.20;99.90
51867;DHT22;52862;52.504;13.480;2022-10-22T11:24:36;17.70;99.90
51867;DHT22;52862;52.504;13.480;2022-10-22T11:27:14;17.90;99.90
51867;DHT22;52862;52.504;13.480;2022-10-22T11:29:48;17.80;99.90
51867;DHT22;52862;52.504;13.480;2022-10-22T11:32:19;17.80;99.90
51867;DHT22;52862;52.504;13.480;2022-10-22T11:34:49;17.50;99.90
51867;DHT22;52862;52.504;13.480;2022-10-22T11:37:17;17.40;99.90
51867;DHT22;52862;52.504;13.480;2022-10-22T11:39:47;17.50;99.90
51867;DHT22;52862;52.504;13.480;2022-10-22T11:42:18;17.90;99.90
51867;DHT22;52862;52.504;13.480;2022-10-22T11:44:49;18.20;99.90
51867;DHT22;52862;52.504;13.480;2022-10-22T11:47:25;18.30;99.90
51867;DHT22;52862;52.504;13.480;2022-10-22T11:49:57;18.20;99.90
51867;DHT22;52862;52.504;13.480;2022-10-22T11:52:36;18.00;99.90
51867;DHT22;52862;52.504;13.480;2022-10-22T11:55:30;17.90;99.90
51867;DHT22;52862;52.504;13.480;2022-10-22T11:57:59;17.80;99.90
51867;DHT22;52862;52.504;13.480;2022-10-22T12:00:34;17.90;99.90
51867;DHT22;52862;52.504;13.480;2022-10-22T12:03:15;17.70;99.90
51867;DHT22;52862;52.504;13.480;2022-10-22T12:05:42;17.60;99.90
51867;DHT22;52862;52.504;13.480;2022-10-22T12:08:23;17.80;99.90
51867;DHT22;52862;52.504;13.480;2022-10-22T12:11:04;18.10;99.90
51867;DHT22;52862;52.504;13.480;2022-10-22T12:13:33;18.30;99.90
51867;DHT22;52862;52.504;13.480;2022-10-22T12:16:17;18.20;99.90
51867;DHT22;52862;52.504;13.480;2022-10-22T12:19:11;17.40;99.90
51867;DHT22;52862;52.504;13.480;2022-10-22T12:21:40;18.60;99.90
51867;DHT22;52862;52.504;13.480;2022-10-22T12:24:11;18.60;99.90
51867;DHT22;52862;52.504;13.480;2022-10-22T12:26:39;18.80;99.90
51867;DHT22;52862;52.504;13.480;2022-10-22T12:29:09;19.20;99.90
51867;DHT22;52862;52.504;13.480;2022-10-22T12:31:37;20.30;99.90
51867;DHT22;52862;52.504;13.480;2022-10-22T12:34:05;22.00;99.90
51867;DHT22;52862;52.504;13.480;2022-10-22T12:36:33;25.80;99.90
51867;DHT22;52862;52.504;13.480;2022-10-22T12:39:01;28.60;99.90
51867;DHT22;52862;52.504;13.480;2022-10-22T12:41:33;29.20;99.90
51867;DHT22;52862;52.504;13.480;2022-10-22T12:44:01;31.50;99.90
51867;DHT22;52862;52.504;13.480;2022-10-22T12:46:31;29.50;99.80
51867;DHT22;52862;52.504;13.480;2022-10-22T12:48:59;30.70;99.90
51867;DHT22;52862;52.504;13.480;2022-10-22T12:51:28;31.70;98.70
51867;DHT22;52862;52.504;13.480;2022-10-22T12:54:05;31.40;96.80
51867;DHT22;52862;52.504;13.480;2022-10-22T12:56:34;30.90;96.70
51867;DHT22;52862;52.504;13.480;2022-10-22T12:59:03;31.70;95.20
51867;DHT22;52862;52.504;13.480;2022-10-22T13:01:34;32.80;93.70
51867;DHT22;52862;52.504;13.480;2022-10-22T13:04:12;34.20;91.00
51867;DHT22;52862;52.504;13.480;2022-10-22T13:06:44;34.50;87.80
51867;DHT22;52862;52.504;13.480;2022-10-22T13:09:14;33.40;89.00
51867;DHT22;52862;52.504;13.480;2022-10-22T13:11:49;33.10;89.40
51867;DHT22;52862;52.504;13.480;2022-10-22T13:14:20;33.20;87.90
51867;DHT22;52862;52.504;13.480;2022-10-22T13:17:03;34.00;85.00
51867;DHT22;52862;52.504;13.480;2022-10-22T13:19:39;32.20;87.50
51867;DHT22;52862;52.504;13.480;2022-10-22T13:22:23;30.40;90.80
51867;DHT22;52862;52.504;13.480;2022-10-22T13:24:50;29.10;91.70
51867;DHT22;52862;52.504;13.480;2022-10-22T13:27:18;27.30;95.30
51867;DHT22;52862;52.504;13.480;2022-10-22T13:29:45;29.00;93.30
51867;DHT22;52862;52.504;13.480;2022-10-22T13:32:25;30.10;92.00
51867;DHT22;52862;52.504;13.480;2022-10-22T13:34:53;29.10;92.30
51867;DHT22;52862;52.504;13.480;2022-10-22T13:37:20;30.40;91.10
51867;DHT22;52862;52.504;13.480;2022-10-22T13:39:48;32.00;89.30
51867;DHT22;52862;52.504;13.480;2022-10-22T13:42:15;32.70;86.30
51867;DHT22;52862;52.504;13.480;2022-10-22T13:44:42;32.40;86.40
51867;DHT22;52862;52.504;13.480;2022-10-22T13:47:17;31.70;86.30
51867;DHT22;52862;52.504;13.480;2022-10-22T13:49:47;31.40;86.30
51867;DHT22;52862;52.504;13.480;2022-10-22T13:52:21;31.70;86.80
51867;DHT22;52862;52.504;13.480;2022-10-22T13:54:51;30.60;88.20
51867;DHT22;52862;52.504;13.480;2022-10-22T13:57:18;29.80;90.10
51867;DHT22;52862;52.504;13.480;2022-10-22T13:59:45;26.70;93.60
51867;DHT22;52862;52.504;13.480;2022-10-22T14:02:12;24.10;97.90
51867;DHT22;52862;52.504;13.480;2022-10-22T14:04:40;22.20;99.90
51867;DHT22;52862;52.504;13.480;2022-10-22T14:07:09;21.10;99.90
51867;DHT22;52862;52.504;13.480;2022-10-22T14:09:37;20.40;99.90
51867;DHT22;52862;52.504;13.480;2022-10-22T14:12:09;20.00;99.90
51867;DHT22;52862;52.504;13.480;2022-10-22T14:14:36;19.80;99.90
51867;DHT22;52862;52.504;13.480;2022-10-22T14:17:04;18.40;99.90
51867;DHT22;52862;52.504;13.480;2022-10-22T14:19:31;19.60;99.90
51867;DHT22;52862;52.504;13.480;2022-10-22T14:21:58;19.50;99.90
51867;DHT22;52862;52.504;13.480;2022-10-22T14:24:25;19.60;99.90
51867;DHT22;52862;52.504;13.480;2022-10-22T14:26:51;19.50;99.90
51867;DHT22;52862;52.504;13.480;2022-10-22T14:29:18;19.40;99.90
51867;DHT22;52862;52.504;13.480;2022-10-22T14:31:45;19.30;99.90
51867;DHT22;52862;52.504;13.480;2022-10-22T14:34:14;19.30;99.90
51867;DHT22;52862;52.504;13.480;2022-10-22T14:36:41;19.30;99.90
51867;DHT22;52862;52.504;13.480;2022-10-22T14:39:08;20.00;99.90
51867;DHT22;52862;52.504;13.480;2022-10-22T14:41:35;19.30;99.90
51867;DHT22;52862;52.504;13.480;2022-10-22T14:44:03;19.60;99.90
51867;DHT22;52862;52.504;13.480;2022-10-22T14:46:29;19.20;99.90
51867;DHT22;52862;52.504;13.480;2022-10-22T14:48:56;19.10;99.90
51867;DHT22;52862;52.504;13.480;2022-10-22T14:51:23;19.10;99.90
51867;DHT22;52862;52.504;13.480;2022-10-22T14:53:50;18.60;99.90
51867;DHT22;52862;52.504;13.480;2022-10-22T14:56:18;18.90;99.90
51867;DHT22;52862;52.504;13.480;2022-10-22T14:58:46;18.70;99.90
51867;DHT22;52862;52.504;13.480;2022-10-22T15:01:13;18.80;99.90
51867;DHT22;52862;52.504;13.480;2022-10-22T15:03:39;18.80;99.90
51867;DHT22;52862;52.504;13.480;2022-10-22T15:06:06;18.50;99.90
51867;DHT22;52862;52.504;13.480;2022-10-22T15:08:34;18.70;99.90
51867;DHT22;52862;52.504;13.480;2022-10-22T15:11:02;18.70;99.90
51867;DHT22;52862;52.504;13.480;2022-10-22T15:13:29;18.60;99.90
51867;DHT22;52862;52.504;13.480;2022-10-22T15:15:56;18.60;99.90
51867;DHT22;52862;52.504;13.480;2022-10-22T15:18:23;18.70;99.90
51867;DHT22;52862;52.504;13.480;2022-10-22T15:20:54;18.50;99.90
51867;DHT22;52862;52.504;13.480;2022-10-22T15:23:21;18.50;99.90
51867;DHT22;52862;52.504;13.480;2022-10-22T15:25:48;18.20;99.90
51867;DHT22;52862;52.504;13.480;2022-10-22T15:28:15;18.40;99.90
51867;DHT22;52862;52.504;13.480;2022-10-22T15:30:42;18.30;99.90
51867;DHT22;52862;52.504;13.480;2022-10-22T15:33:09;18.30;99.90
51867;DHT22;52862;52.504;13.480;2022-10-22T15:35:36;18.30;99.90